Time;durP1;ratioP1;P1;durP2;ratioP2;P2;SDS_P1;SDS_P2;PMS_P1;PMS_P2;Temp;Humidity;BMP_temperature;BMP_pressure;BME280_temperature;BME280_humidity;BME280_pressure;Samples;Min_cycle;Max_cycle;Signal;HPM_P1;HPM_P2
2021/12/13 00:00:54;;;;;;;6.57;4.30;;;;;;;;;;5073600;28;20958;-72
2021/12/13 00:03:26;;;;;;;4.17;3.63;;;;;;;;;;5073675;28;20832;-72
2021/12/13 00:05:56;;;;;;;7.47;4.90;;;;;;;;;;5073595;28;20498;-72
2021/12/13 00:08:28;;;;;;;4.27;3.23;;;;;;;;;;5073394;28;20959;-72
2021/12/13 00:10:59;;;;;;;4.47;4.03;;;;;;;;;;5073532;28;20495;-72
2021/12/13 00:13:29;;;;;;;6.37;4.30;;;;;;;;;;5073264;28;20455;-72
2021/12/13 00:15:58;;;;;;;6.83;5.43;;;;;;;;;;5073041;28;20463;-72
2021/12/13 00:18:27;;;;;;;10.77;4.93;;;;;;;;;;5073241;28;20513;-72
2021/12/13 00:20:59;;;;;;;5.90;3.63;;;;;;;;;;5073375;28;20505;-72
2021/12/13 00:23:28;;;;;;;5.47;4.10;;;;;;;;;;5073323;28;20456;-72
2021/12/13 00:25:58;;;;;;;6.80;4.57;;;;;;;;;;5073217;28;20455;-72
2021/12/13 00:28:27;;;;;;;5.70;4.73;;;;;;;;;;5073161;28;20461;-72
2021/12/13 00:31:13;;;;;;;5.30;4.30;;;;;;;;;;5073189;28;20491;-72
2021/12/13 00:33:44;;;;;;;5.43;4.33;;;;;;;;;;5073023;28;20455;-72
2021/12/13 00:36:16;;;;;;;7.40;5.20;;;;;;;;;;5073237;28;20463;-72
2021/12/13 00:38:46;;;;;;;5.60;4.63;;;;;;;;;;5073125;28;20460;-72
2021/12/13 00:41:15;;;;;;;12.30;6.00;;;;;;;;;;5072998;28;20450;-72
2021/12/13 00:43:44;;;;;;;10.73;6.30;;;;;;;;;;5072866;28;20451;-72
2021/12/13 00:46:13;;;;;;;8.13;5.60;;;;;;;;;;5072959;28;20471;-72
2021/12/13 00:48:43;;;;;;;7.47;6.10;;;;;;;;;;5072900;28;20459;-72
2021/12/13 00:51:14;;;;;;;7.53;5.77;;;;;;;;;;5072838;28;20488;-72
2021/12/13 00:53:43;;;;;;;8.43;5.40;;;;;;;;;;5072764;28;20458;-72
2021/12/13 00:56:25;;;;;;;15.50;8.67;;;;;;;;;;5072911;28;20455;-72
2021/12/13 00:58:52;;;;;;;14.17;8.53;;;;;;;;;;5072797;28;20936;-72
2021/12/13 01:01:23;;;;;;;11.60;7.20;;;;;;;;;;5072964;28;20458;-72
2021/12/13 01:03:51;;;;;;;9.80;8.23;;;;;;;;;;5072944;28;20451;-72
2021/12/13 01:06:51;;;;;;;11.43;6.87;;;;;;;;;;5072813;28;20443;-72
2021/12/13 01:09:33;;;;;;;8.00;5.90;;;;;;;;;;5072840;28;20452;-72
2021/12/13 01:12:03;;;;;;;8.23;6.67;;;;;;;;;;5060891;28;20491;-72
2021/12/13 01:14:52;;;;;;;12.00;6.40;;;;;;;;;;5072561;28;20940;-72
2021/12/13 01:17:29;;;;;;;10.17;6.23;;;;;;;;;;5072733;28;20505;-72
2021/12/13 01:20:01;;;;;;;10.07;6.90;;;;;;;;;;5072973;28;20461;-72
2021/12/13 01:22:42;;;;;;;11.37;7.37;;;;;;;;;;5072794;28;20454;-72
2021/12/13 01:28:00;;;;;;;9.03;7.67;;;;;;;;;;5066061;28;20530;-72
2021/12/13 01:30:30;;;;;;;7.77;6.97;;;;;;;;;;5076375;28;20491;-72
2021/12/13 01:32:59;;;;;;;9.43;7.73;;;;;;;;;;5076658;28;20458;-72
2021/12/13 01:35:27;;;;;;;11.17;7.90;;;;;;;;;;5076174;28;20456;-72
2021/12/13 01:37:55;;;;;;;10.07;7.70;;;;;;;;;;5076409;28;20809;-72
2021/12/13 01:40:24;;;;;;;10.10;6.57;;;;;;;;;;5076434;28;20448;-72
2021/12/13 01:42:56;;;;;;;8.77;7.30;;;;;;;;;;5076403;28;20474;-72
2021/12/13 01:45:27;;;;;;;13.50;8.97;;;;;;;;;;5075847;28;20848;-72
2021/12/13 01:47:54;;;;;;;13.73;8.70;;;;;;;;;;5076071;28;20454;-72
2021/12/13 01:50:24;;;;;;;12.17;8.70;;;;;;;;;;5076023;28;20486;-72
2021/12/13 01:52:52;;;;;;;13.50;9.27;;;;;;;;;;5076052;28;20456;-72
2021/12/13 01:55:23;;;;;;;11.50;9.67;;;;;;;;;;5075816;28;20814;-72
2021/12/13 01:57:54;;;;;;;14.53;9.60;;;;;;;;;;5076118;28;20463;-72
2021/12/13 02:00:33;;;;;;;14.67;10.03;;;;;;;;;;5076174;28;20820;-72
2021/12/13 02:03:01;;;;;;;12.40;9.33;;;;;;;;;;5075856;28;20871;-72
2021/12/13 02:05:30;;;;;;;11.17;9.20;;;;;;;;;;5075600;28;20462;-72
2021/12/13 02:07:59;;;;;;;14.87;9.83;;;;;;;;;;5075884;28;20815;-72
2021/12/13 02:10:29;;;;;;;16.73;11.23;;;;;;;;;;5075842;28;20495;-72
2021/12/13 02:13:01;;;;;;;16.87;9.90;;;;;;;;;;5075672;28;20448;-72
2021/12/13 02:18:31;;;;;;;15.80;10.53;;;;;;;;;;5013825;28;20427;-72
2021/12/13 02:21:05;;;;;;;18.27;12.03;;;;;;;;;;5062431;28;20436;-72
2021/12/13 02:23:34;;;;;;;16.53;10.60;;;;;;;;;;5075307;28;20817;-72
2021/12/13 02:26:01;;;;;;;14.40;10.90;;;;;;;;;;5075521;28;20455;-72
2021/12/13 02:28:30;;;;;;;13.67;10.17;;;;;;;;;;5075449;28;20444;-72
2021/12/13 02:30:58;;;;;;;18.03;11.27;;;;;;;;;;5075759;28;20499;-72
2021/12/13 02:33:30;;;;;;;15.70;10.73;;;;;;;;;;5075247;28;20454;-72
2021/12/13 02:35:58;;;;;;;17.60;11.40;;;;;;;;;;5075605;28;20640;-72
2021/12/13 02:38:27;;;;;;;19.20;10.93;;;;;;;;;;5075007;28;20456;-72
2021/12/13 02:40:56;;;;;;;13.40;11.03;;;;;;;;;;5075287;28;20467;-72
2021/12/13 02:43:25;;;;;;;13.20;10.50;;;;;;;;;;5075151;28;20786;-72
2021/12/13 02:45:54;;;;;;;13.37;11.47;;;;;;;;;;5075175;28;20451;-72
2021/12/13 02:48:23;;;;;;;17.37;10.57;;;;;;;;;;5075061;28;20595;-72
2021/12/13 02:50:52;;;;;;;16.93;10.47;;;;;;;;;;5074975;28;20855;-72
2021/12/13 02:53:22;;;;;;;14.93;9.27;;;;;;;;;;5074870;28;20447;-72
2021/12/13 02:55:49;;;;;;;20.87;10.70;;;;;;;;;;5074882;28;20814;-72
2021/12/13 02:58:19;;;;;;;13.63;9.80;;;;;;;;;;5074807;28;20817;-72
2021/12/13 03:00:51;;;;;;;12.80;10.17;;;;;;;;;;5074910;28;20440;-72
2021/12/13 03:03:20;;;;;;;12.77;10.00;;;;;;;;;;5074691;28;20444;-72
2021/12/13 03:05:49;;;;;;;15.87;10.33;;;;;;;;;;5074586;28;20456;-72
2021/12/13 03:08:19;;;;;;;13.73;9.60;;;;;;;;;;5074852;28;20443;-72
2021/12/13 03:10:49;;;;;;;15.30;10.43;;;;;;;;;;5074459;28;20494;-72
2021/12/13 03:13:18;;;;;;;18.17;10.47;;;;;;;;;;5074455;28;20452;-72
2021/12/13 03:15:47;;;;;;;16.93;10.73;;;;;;;;;;5074548;28;20432;-72
2021/12/13 03:18:17;;;;;;;13.80;9.70;;;;;;;;;;5074437;28;20940;-72
2021/12/13 03:21:09;;;;;;;14.73;11.23;;;;;;;;;;5074616;28;20951;-72
2021/12/13 03:23:42;;;;;;;17.87;11.33;;;;;;;;;;5074198;28;20451;-72
2021/12/13 03:26:30;;;;;;;14.17;10.80;;;;;;;;;;5074403;28;20459;-72
2021/12/13 03:29:06;;;;;;;12.80;9.23;;;;;;;;;;5065066;28;20439;-72
2021/12/13 03:31:36;;;;;;;14.67;10.80;;;;;;;;;;5074262;28;20483;-72
2021/12/13 03:34:05;;;;;;;12.97;9.00;;;;;;;;;;5074019;28;20448;-72
2021/12/13 03:36:39;;;;;;;16.43;10.00;;;;;;;;;;5074028;28;20463;-72
2021/12/13 03:39:08;;;;;;;12.63;8.67;;;;;;;;;;5074056;28;20969;-72
2021/12/13 03:41:37;;;;;;;9.93;8.00;;;;;;;;;;5074010;28;20447;-72
2021/12/13 03:44:07;;;;;;;7.17;5.60;;;;;;;;;;5073724;28;20463;-72
2021/12/13 03:46:35;;;;;;;8.80;6.53;;;;;;;;;;5073781;28;20473;-72
2021/12/13 03:49:04;;;;;;;8.10;6.10;;;;;;;;;;5074141;28;20448;-72
2021/12/13 03:51:33;;;;;;;11.60;7.77;;;;;;;;;;5073117;28;20510;-72
2021/12/13 03:54:01;;;;;;;12.70;8.20;;;;;;;;;;5073578;28;20448;-72
2021/12/13 03:56:29;;;;;;;8.30;6.23;;;;;;;;;;5073594;28;20812;-72
2021/12/13 03:58:58;;;;;;;8.80;6.93;;;;;;;;;;5073483;28;20448;-72
2021/12/13 04:01:28;;;;;;;10.13;6.90;;;;;;;;;;5073829;28;20452;-72
2021/12/13 04:03:56;;;;;;;6.83;5.17;;;;;;;;;;5073561;28;20456;-72
2021/12/13 04:06:24;;;;;;;9.83;6.30;;;;;;;;;;5073468;28;20478;-72
2021/12/13 04:08:52;;;;;;;15.10;7.43;;;;;;;;;;5073568;28;20452;-72
2021/12/13 04:11:19;;;;;;;7.20;5.67;;;;;;;;;;5073496;28;20480;-72
2021/12/13 04:13:48;;;;;;;10.20;6.60;;;;;;;;;;5073431;28;20960;-72
2021/12/13 04:16:29;;;;;;;8.43;6.13;;;;;;;;;;5073498;28;20448;-72
2021/12/13 04:19:08;;;;;;;7.60;5.37;;;;;;;;;;5073460;28;20948;-72
2021/12/13 04:21:39;;;;;;;10.83;6.13;;;;;;;;;;5073342;28;20538;-72
2021/12/13 04:24:08;;;;;;;9.80;6.27;;;;;;;;;;5073279;28;20813;-72
2021/12/13 04:26:40;;;;;;;10.43;7.50;;;;;;;;;;5073265;28;20455;-72
2021/12/13 04:29:12;;;;;;;9.10;5.73;;;;;;;;;;5073198;28;20451;-72
2021/12/13 04:31:40;;;;;;;8.70;6.90;;;;;;;;;;5073113;28;20495;-72
2021/12/13 04:34:09;;;;;;;9.70;6.37;;;;;;;;;;5073187;28;20470;-72
2021/12/13 04:36:38;;;;;;;10.33;5.97;;;;;;;;;;5073214;28;20452;-72
2021/12/13 04:39:07;;;;;;;7.47;5.20;;;;;;;;;;5073101;28;20956;-72
2021/12/13 04:41:35;;;;;;;13.37;9.03;;;;;;;;;;5073060;28;20452;-72
2021/12/13 04:44:08;;;;;;;9.50;5.97;;;;;;;;;;5072947;28;20801;-72
2021/12/13 04:46:37;;;;;;;7.47;5.33;;;;;;;;;;5072984;28;20471;-72
2021/12/13 04:49:06;;;;;;;5.63;4.87;;;;;;;;;;5073306;28;20464;-72
2021/12/13 04:51:40;;;;;;;7.63;5.00;;;;;;;;;;5072864;28;20491;-72
2021/12/13 04:54:08;;;;;;;8.87;5.00;;;;;;;;;;5072839;28;20459;-72
2021/12/13 04:56:35;;;;;;;7.47;5.20;;;;;;;;;;5073081;28;20456;-72
2021/12/13 04:59:03;;;;;;;10.50;6.37;;;;;;;;;;5073094;28;20828;-72
2021/12/13 05:01:31;;;;;;;7.20;5.00;;;;;;;;;;5072846;28;20475;-72
2021/12/13 05:03:59;;;;;;;7.03;5.87;;;;;;;;;;5076900;28;20455;-72
2021/12/13 05:06:28;;;;;;;6.73;4.60;;;;;;;;;;5077367;28;20448;-72
2021/12/13 05:08:59;;;;;;;7.87;5.70;;;;;;;;;;5077379;28;20500;-72
2021/12/13 05:11:29;;;;;;;8.27;6.67;;;;;;;;;;5078076;28;20475;-72
2021/12/13 05:13:57;;;;;;;9.53;5.57;;;;;;;;;;5076856;28;20451;-72
2021/12/13 05:16:28;;;;;;;7.40;6.13;;;;;;;;;;5076774;28;20447;-72
2021/12/13 05:18:56;;;;;;;7.73;5.77;;;;;;;;;;5077196;28;20452;-72
2021/12/13 05:21:25;;;;;;;11.83;7.27;;;;;;;;;;5076646;28;20807;-72
2021/12/13 05:23:55;;;;;;;12.73;6.90;;;;;;;;;;5076546;28;20461;-72
2021/12/13 05:26:31;;;;;;;18.33;8.27;;;;;;;;;;5076596;28;20447;-72
2021/12/13 05:29:00;;;;;;;12.77;7.23;;;;;;;;;;5076604;28;20451;-72
2021/12/13 05:31:28;;;;;;;14.73;9.00;;;;;;;;;;5076371;28;20579;-72
2021/12/13 05:33:56;;;;;;;14.17;6.77;;;;;;;;;;5076529;28;20451;-72
2021/12/13 05:36:24;;;;;;;14.70;8.07;;;;;;;;;;5076609;28;20455;-72
2021/12/13 05:38:52;;;;;;;18.10;9.53;;;;;;;;;;5076447;28;20460;-72
2021/12/13 05:41:22;;;;;;;16.73;8.93;;;;;;;;;;5076265;28;20461;-72
2021/12/13 05:43:52;;;;;;;16.37;8.40;;;;;;;;;;5076049;28;20451;-72
2021/12/13 05:46:20;;;;;;;22.27;8.33;;;;;;;;;;5076102;28;20459;-72
2021/12/13 05:48:49;;;;;;;13.10;8.67;;;;;;;;;;5076174;28;20455;-72
2021/12/13 05:51:21;;;;;;;12.93;7.60;;;;;;;;;;5075956;28;20458;-72
2021/12/13 05:53:52;;;;;;;15.53;8.90;;;;;;;;;;5076019;28;20460;-72
2021/12/13 05:56:20;;;;;;;14.27;7.97;;;;;;;;;;5076013;28;20820;-72
2021/12/13 05:58:49;;;;;;;16.23;9.07;;;;;;;;;;5075989;28;20454;-73
2021/12/13 06:01:20;;;;;;;14.50;8.97;;;;;;;;;;5075883;28;20456;-73
2021/12/13 06:03:52;;;;;;;14.20;9.10;;;;;;;;;;5075825;28;20459;-72
2021/12/13 06:06:22;;;;;;;18.93;10.20;;;;;;;;;;5075819;28;20462;-73
2021/12/13 06:08:53;;;;;;;15.90;8.93;;;;;;;;;;5075981;28;20557;-73
2021/12/13 06:11:22;;;;;;;13.43;9.13;;;;;;;;;;5075588;28;20455;-72
2021/12/13 06:13:57;;;;;;;16.20;9.87;;;;;;;;;;5074986;28;20798;-73
2021/12/13 06:16:56;;;;;;;15.10;8.70;;;;;;;;;;5075781;28;20451;-73
2021/12/13 06:19:28;;;;;;;12.83;9.07;;;;;;;;;;5075817;28;20455;-73
2021/12/13 06:22:04;;;;;;;14.07;8.07;;;;;;;;;;5075694;28;20489;-73
2021/12/13 06:24:32;;;;;;;15.60;10.20;;;;;;;;;;5075468;28;20462;-73
2021/12/13 06:27:04;;;;;;;13.57;9.30;;;;;;;;;;5075447;28;20460;-73
2021/12/13 06:29:44;;;;;;;15.57;9.73;;;;;;;;;;5075556;28;20819;-73
2021/12/13 06:32:22;;;;;;;21.03;13.03;;;;;;;;;;5075587;28;20488;-73
2021/12/13 06:34:50;;;;;;;15.83;10.13;;;;;;;;;;5075332;28;20944;-73
2021/12/13 06:37:23;;;;;;;13.60;9.90;;;;;;;;;;5075495;28;20452;-73
2021/12/13 06:39:50;;;;;;;15.50;10.37;;;;;;;;;;5075403;28;20842;-73
2021/12/13 06:42:17;;;;;;;14.70;8.63;;;;;;;;;;5075170;28;20452;-73
2021/12/13 06:44:45;;;;;;;13.23;9.50;;;;;;;;;;5074880;28;20454;-73
2021/12/13 06:47:14;;;;;;;12.33;8.50;;;;;;;;;;5075263;28;20862;-73
2021/12/13 06:49:44;;;;;;;15.57;9.93;;;;;;;;;;5075189;28;20980;-73
2021/12/13 06:52:21;;;;;;;14.23;9.70;;;;;;;;;;5075047;28;20849;-73
2021/12/13 06:54:49;;;;;;;14.83;9.50;;;;;;;;;;5074818;28;20458;-73
2021/12/13 06:57:18;;;;;;;18.17;11.40;;;;;;;;;;5074817;28;20467;-73
2021/12/13 06:59:50;;;;;;;23.10;11.90;;;;;;;;;;5075036;28;20442;-73
2021/12/13 07:02:19;;;;;;;20.57;11.13;;;;;;;;;;5074824;28;20448;-73
2021/12/13 07:04:53;;;;;;;16.17;9.87;;;;;;;;;;5074872;28;20924;-73
2021/12/13 07:07:21;;;;;;;15.50;10.47;;;;;;;;;;5075019;28;20478;-73
2021/12/13 07:09:57;;;;;;;18.90;11.10;;;;;;;;;;5074606;28;20448;-73
2021/12/13 07:12:25;;;;;;;20.77;11.13;;;;;;;;;;5074582;28;20489;-73
2021/12/13 07:14:52;;;;;;;21.03;12.77;;;;;;;;;;5074453;28;20456;-73
2021/12/13 07:17:21;;;;;;;42.00;19.77;;;;;;;;;;5074460;28;20459;-73
2021/12/13 07:19:49;;;;;;;47.90;21.13;;;;;;;;;;5074621;28;20900;-73
2021/12/13 07:22:20;;;;;;;27.97;15.10;;;;;;;;;;5074325;28;20466;-73
2021/12/13 07:24:48;;;;;;;34.70;18.60;;;;;;;;;;5074154;28;20458;-73
2021/12/13 07:27:17;;;;;;;34.53;20.17;;;;;;;;;;5073458;28;20941;-73
2021/12/13 07:29:45;;;;;;;30.80;17.87;;;;;;;;;;5074448;28;20479;-73
2021/12/13 07:32:15;;;;;;;34.77;12.27;;;;;;;;;;5074162;28;20841;-73
2021/12/13 07:34:53;;;;;;;21.03;13.80;;;;;;;;;;5071714;28;20828;-73
2021/12/13 07:37:34;;;;;;;28.03;12.87;;;;;;;;;;5072371;28;20456;-73
2021/12/13 07:40:14;;;;;;;28.67;13.80;;;;;;;;;;5072718;28;20452;-73
2021/12/13 07:42:49;;;;;;;24.87;12.03;;;;;;;;;;5072313;28;20925;-72
2021/12/13 07:45:23;;;;;;;25.50;12.50;;;;;;;;;;5072367;28;20463;-73
2021/12/13 07:47:52;;;;;;;24.47;12.20;;;;;;;;;;5072433;28;20464;-73
2021/12/13 07:50:20;;;;;;;29.77;13.97;;;;;;;;;;5072209;28;20451;-73
2021/12/13 07:52:53;;;;;;;25.87;14.80;;;;;;;;;;5072511;28;20829;-73
2021/12/13 07:55:22;;;;;;;19.73;12.00;;;;;;;;;;5072140;28;20448;-73
2021/12/13 07:57:50;;;;;;;23.43;12.70;;;;;;;;;;5072108;28;20448;-72
2021/12/13 08:00:20;;;;;;;16.67;9.83;;;;;;;;;;5072184;28;20455;-72
2021/12/13 08:02:54;;;;;;;19.10;9.50;;;;;;;;;;5072425;28;20830;-72
2021/12/13 08:05:24;;;;;;;17.60;11.20;;;;;;;;;;5071869;28;20450;-72
2021/12/13 08:07:54;;;;;;;13.90;8.63;;;;;;;;;;5072392;28;20820;-72
2021/12/13 08:10:23;;;;;;;14.43;9.80;;;;;;;;;;5072131;28;20474;-72
2021/12/13 08:12:51;;;;;;;15.07;9.73;;;;;;;;;;5071912;28;20495;-73
2021/12/13 08:15:20;;;;;;;15.37;10.60;;;;;;;;;;5071934;28;20802;-73
2021/12/13 08:17:49;;;;;;;20.50;12.00;;;;;;;;;;5072059;28;20962;-73
2021/12/13 08:20:20;;;;;;;20.80;13.20;;;;;;;;;;5071952;28;20501;-73
2021/12/13 08:22:49;;;;;;;14.93;10.10;;;;;;;;;;5072125;28;20451;-73
2021/12/13 08:25:22;;;;;;;19.57;10.87;;;;;;;;;;5072011;28;20857;-74
2021/12/13 08:27:51;;;;;;;18.77;11.63;;;;;;;;;;5072188;28;20482;-73
2021/12/13 08:30:20;;;;;;;17.83;11.43;;;;;;;;;;5071858;28;20463;-73
2021/12/13 08:32:58;;;;;;;14.80;10.27;;;;;;;;;;5071697;28;20487;-73
2021/12/13 08:35:26;;;;;;;16.83;10.53;;;;;;;;;;5071401;28;20447;-73
2021/12/13 08:37:57;;;;;;;20.73;11.80;;;;;;;;;;5071634;28;20524;-73
2021/12/13 08:40:27;;;;;;;20.27;11.10;;;;;;;;;;5071763;28;20932;-73
2021/12/13 08:42:56;;;;;;;16.73;10.17;;;;;;;;;;5071650;28;20435;-73
2021/12/13 08:45:27;;;;;;;14.73;8.80;;;;;;;;;;5071429;28;20468;-73
2021/12/13 08:47:57;;;;;;;16.40;9.77;;;;;;;;;;5071537;28;20546;-73
2021/12/13 08:50:27;;;;;;;14.97;8.67;;;;;;;;;;5071325;28;20824;-73
2021/12/13 08:52:56;;;;;;;13.63;9.17;;;;;;;;;;5071759;28;20484;-73
2021/12/13 08:55:29;;;;;;;12.63;8.80;;;;;;;;;;5071041;28;20452;-73
2021/12/13 08:57:58;;;;;;;14.60;9.90;;;;;;;;;;5071679;28;20838;-73
2021/12/13 09:00:32;;;;;;;16.30;9.97;;;;;;;;;;5071379;28;20452;-73
2021/12/13 09:03:02;;;;;;;15.50;9.97;;;;;;;;;;5071638;28;20490;-73
2021/12/13 09:05:33;;;;;;;14.53;8.70;;;;;;;;;;5071127;28;20961;-73
2021/12/13 09:08:01;;;;;;;12.70;7.63;;;;;;;;;;5071730;28;20460;-73
2021/12/13 09:10:45;;;;;;;17.30;9.17;;;;;;;;;;5071299;28;20451;-73
2021/12/13 09:13:13;;;;;;;16.57;10.17;;;;;;;;;;5071411;28;20510;-73
2021/12/13 09:15:41;;;;;;;14.40;10.13;;;;;;;;;;5071251;28;20448;-73
2021/12/13 09:18:09;;;;;;;14.90;9.37;;;;;;;;;;5071289;28;20436;-73
2021/12/13 09:20:41;;;;;;;22.50;10.43;;;;;;;;;;5071480;28;20810;-73
2021/12/13 09:23:10;;;;;;;13.33;7.27;;;;;;;;;;5071570;28;20443;-73
2021/12/13 09:25:38;;;;;;;13.43;8.77;;;;;;;;;;5070900;28;20455;-73
2021/12/13 09:28:11;;;;;;;18.40;10.80;;;;;;;;;;5071381;28;20486;-73
2021/12/13 09:30:41;;;;;;;11.53;8.33;;;;;;;;;;5071156;28;20952;-73
2021/12/13 09:33:13;;;;;;;12.83;8.43;;;;;;;;;;5071082;28;20575;-73
2021/12/13 09:35:46;;;;;;;18.10;10.90;;;;;;;;;;5070958;28;20459;-73
2021/12/13 09:38:23;;;;;;;19.70;9.20;;;;;;;;;;5071272;28;20463;-73
2021/12/13 09:40:52;;;;;;;15.90;9.00;;;;;;;;;;5070985;28;20466;-73
2021/12/13 09:43:23;;;;;;;19.07;8.80;;;;;;;;;;5071156;28;20448;-73
2021/12/13 09:45:52;;;;;;;12.27;8.47;;;;;;;;;;5070954;28;20516;-73
2021/12/13 09:48:22;;;;;;;14.70;8.57;;;;;;;;;;5070892;28;20455;-73
2021/12/13 09:50:50;;;;;;;14.83;8.40;;;;;;;;;;5074471;28;20451;-73
2021/12/13 09:53:18;;;;;;;11.83;7.07;;;;;;;;;;5074560;28;20487;-73
2021/12/13 09:55:47;;;;;;;12.10;7.03;;;;;;;;;;5074317;28;20815;-73
2021/12/13 09:58:16;;;;;;;14.87;8.13;;;;;;;;;;5074694;28;20546;-73
2021/12/13 10:00:46;;;;;;;12.87;8.03;;;;;;;;;;5074637;28;20451;-73
2021/12/13 10:03:16;;;;;;;14.13;8.57;;;;;;;;;;5074478;28;20458;-73
2021/12/13 10:05:45;;;;;;;10.40;8.03;;;;;;;;;;5074557;28;20444;-73
2021/12/13 10:08:14;;;;;;;11.40;8.00;;;;;;;;;;5074440;28;20451;-73
2021/12/13 10:10:44;;;;;;;9.30;6.53;;;;;;;;;;5074142;28;20482;-73
2021/12/13 10:13:13;;;;;;;12.67;8.60;;;;;;;;;;5074301;28;21014;-73
2021/12/13 10:15:42;;;;;;;7.83;6.17;;;;;;;;;;5074083;28;20467;-73
2021/12/13 10:18:12;;;;;;;12.77;7.27;;;;;;;;;;5074290;28;20458;-73
2021/12/13 10:20:42;;;;;;;10.83;7.17;;;;;;;;;;5074075;28;20447;-73
2021/12/13 10:23:10;;;;;;;11.73;6.67;;;;;;;;;;5074430;28;20447;-73
2021/12/13 10:25:40;;;;;;;11.37;6.53;;;;;;;;;;5073715;28;20459;-73
2021/12/13 10:28:09;;;;;;;10.90;7.10;;;;;;;;;;5074284;28;20455;-73
2021/12/13 10:30:38;;;;;;;11.57;7.33;;;;;;;;;;5073915;28;20830;-73
2021/12/13 10:33:06;;;;;;;13.30;7.47;;;;;;;;;;5073815;28;20483;-73
2021/12/13 10:35:36;;;;;;;12.23;6.53;;;;;;;;;;5073704;28;20470;-73
2021/12/13 10:38:06;;;;;;;13.07;7.60;;;;;;;;;;5073954;28;21004;-73
2021/12/13 10:40:37;;;;;;;10.30;6.60;;;;;;;;;;5073558;28;20459;-73
2021/12/13 10:43:06;;;;;;;13.60;7.47;;;;;;;;;;5073918;28;20455;-73
2021/12/13 10:45:39;;;;;;;10.60;6.30;;;;;;;;;;5073795;28;20467;-73
2021/12/13 10:48:08;;;;;;;13.23;7.53;;;;;;;;;;5075309;28;20487;-73
2021/12/13 10:50:38;;;;;;;16.20;7.27;;;;;;;;;;5074720;28;20452;-73
2021/12/13 10:53:07;;;;;;;13.97;7.70;;;;;;;;;;5075107;28;20459;-73
2021/12/13 10:55:35;;;;;;;12.67;7.50;;;;;;;;;;5074859;28;20463;-73
2021/12/13 10:58:03;;;;;;;11.90;6.83;;;;;;;;;;5075279;28;20451;-73
2021/12/13 11:00:33;;;;;;;9.47;6.67;;;;;;;;;;5074839;28;20454;-73
2021/12/13 11:03:03;;;;;;;10.27;7.17;;;;;;;;;;5075181;28;20452;-73
2021/12/13 11:05:30;;;;;;;12.07;8.00;;;;;;;;;;5074537;28;20456;-73
2021/12/13 11:07:59;;;;;;;11.53;8.20;;;;;;;;;;5074897;28;20448;-73
2021/12/13 11:10:31;;;;;;;9.90;7.57;;;;;;;;;;5074717;28;20443;-73
2021/12/13 11:13:00;;;;;;;8.23;6.33;;;;;;;;;;5074715;28;21014;-73
2021/12/13 11:15:28;;;;;;;10.10;6.97;;;;;;;;;;5074368;28;20828;-73
2021/12/13 11:17:55;;;;;;;9.33;6.17;;;;;;;;;;5074621;28;20982;-73
2021/12/13 11:20:24;;;;;;;7.83;5.93;;;;;;;;;;5074449;28;20452;-73
2021/12/13 11:22:53;;;;;;;7.10;5.33;;;;;;;;;;5074815;28;20452;-73
2021/12/13 11:25:24;;;;;;;11.60;6.90;;;;;;;;;;5074164;28;20903;-73
2021/12/13 11:27:52;;;;;;;6.47;4.87;;;;;;;;;;5074356;28;20451;-73
2021/12/13 11:30:20;;;;;;;9.53;6.33;;;;;;;;;;5074338;28;20937;-73
2021/12/13 11:33:06;;;;;;;6.70;5.03;;;;;;;;;;5074371;28;20944;-73
2021/12/13 11:35:51;;;;;;;9.50;6.10;;;;;;;;;;5073981;28;20459;-71
2021/12/13 11:38:37;;;;;;;7.47;6.20;;;;;;;;;;5074219;28;20454;-73
2021/12/13 11:41:19;;;;;;;8.67;6.20;;;;;;;;;;5074138;28;20447;-73
2021/12/13 11:43:57;;;;;;;7.67;5.30;;;;;;;;;;5073936;28;20455;-73
2021/12/13 11:46:41;;;;;;;7.67;5.63;;;;;;;;;;5074087;28;20463;-73
2021/12/13 11:49:32;;;;;;;8.40;6.40;;;;;;;;;;5074165;28;20463;-73
2021/12/13 11:52:09;;;;;;;8.87;5.50;;;;;;;;;;5074061;28;20814;-73
2021/12/13 11:54:44;;;;;;;11.47;8.23;;;;;;;;;;5073642;28;20483;-73
2021/12/13 11:57:35;;;;;;;13.77;9.23;;;;;;;;;;5073861;28;20451;-73
2021/12/13 12:00:09;;;;;;;12.60;7.33;;;;;;;;;;5073726;28;20462;-73
2021/12/13 12:02:45;;;;;;;7.50;6.40;;;;;;;;;;5073890;28;20489;-72
2021/12/13 12:05:36;;;;;;;9.90;6.00;;;;;;;;;;5073489;28;20839;-73
2021/12/13 12:08:19;;;;;;;8.00;5.90;;;;;;;;;;5073689;28;20450;-73
2021/12/13 12:11:19;;;;;;;9.47;6.20;;;;;;;;;;5072054;28;20835;-73
2021/12/13 12:13:53;;;;;;;10.83;7.00;;;;;;;;;;5073025;28;20500;-72
2021/12/13 12:16:21;;;;;;;11.93;7.37;;;;;;;;;;5073565;28;20483;-73
2021/12/13 12:18:48;;;;;;;13.97;7.50;;;;;;;;;;5073376;28;20809;-73
2021/12/13 12:21:35;;;;;;;19.47;9.30;;;;;;;;;;5073454;28;20452;-73
2021/12/13 12:24:03;;;;;;;11.57;8.77;;;;;;;;;;5073367;28;20454;-73
2021/12/13 12:26:31;;;;;;;14.00;8.27;;;;;;;;;;5073430;28;20447;-73
2021/12/13 12:29:03;;;;;;;19.00;8.50;;;;;;;;;;5073357;28;20937;-73
2021/12/13 12:31:32;;;;;;;19.67;11.40;;;;;;;;;;5073400;28;20459;-72
2021/12/13 12:34:00;;;;;;;14.77;9.90;;;;;;;;;;5073124;28;20863;-73
2021/12/13 12:36:38;;;;;;;17.03;9.30;;;;;;;;;;5073162;28;20456;-73
2021/12/13 12:39:26;;;;;;;11.10;8.07;;;;;;;;;;5073285;28;20463;-73
2021/12/13 12:42:03;;;;;;;22.93;14.47;;;;;;;;;;5048207;28;20811;-73
2021/12/13 12:44:34;;;;;;;15.67;10.70;;;;;;;;;;5073102;28;20444;-73
2021/12/13 12:47:01;;;;;;;12.57;9.03;;;;;;;;;;5073086;28;20460;-73
2021/12/13 12:49:29;;;;;;;15.70;8.90;;;;;;;;;;5073083;28;20455;-73
2021/12/13 12:52:02;;;;;;;13.50;9.80;;;;;;;;;;5073202;28;20448;-73
2021/12/13 12:54:29;;;;;;;12.77;9.13;;;;;;;;;;5072772;28;20487;-73
2021/12/13 12:56:58;;;;;;;13.50;8.63;;;;;;;;;;5073225;28;20456;-72
2021/12/13 12:59:27;;;;;;;10.23;7.70;;;;;;;;;;5073034;28;20460;-72
2021/12/13 13:01:58;;;;;;;18.43;8.07;;;;;;;;;;5073059;28;20463;-72
2021/12/13 13:04:26;;;;;;;14.90;9.33;;;;;;;;;;5072689;28;20456;-73
2021/12/13 13:06:57;;;;;;;14.57;9.47;;;;;;;;;;5073041;28;20459;-73
2021/12/13 13:09:24;;;;;;;17.90;10.40;;;;;;;;;;5072920;28;20936;-73
2021/12/13 13:11:53;;;;;;;14.13;10.07;;;;;;;;;;5073019;28;20458;-73
2021/12/13 13:14:22;;;;;;;12.17;9.50;;;;;;;;;;5072764;28;20487;-73
2021/12/13 13:16:51;;;;;;;19.07;11.57;;;;;;;;;;5073075;28;20539;-73
2021/12/13 13:19:28;;;;;;;15.00;10.43;;;;;;;;;;5072865;28;20452;-73
2021/12/13 13:21:55;;;;;;;16.10;9.63;;;;;;;;;;5072824;28;20458;-73
2021/12/13 13:24:23;;;;;;;12.30;9.07;;;;;;;;;;5075636;28;20448;-73
2021/12/13 13:26:50;;;;;;;12.73;8.13;;;;;;;;;;5076806;28;20830;-73
2021/12/13 13:29:18;;;;;;;11.70;8.07;;;;;;;;;;5076554;28;20443;-73
2021/12/13 13:31:50;;;;;;;14.33;8.00;;;;;;;;;;5076770;28;20952;-73
2021/12/13 13:34:19;;;;;;;10.03;7.07;;;;;;;;;;5076379;28;20859;-73
2021/12/13 13:36:49;;;;;;;9.47;7.27;;;;;;;;;;5076661;28;20448;-72
2021/12/13 13:39:18;;;;;;;9.20;6.70;;;;;;;;;;5076778;28;20454;-73
2021/12/13 13:41:47;;;;;;;15.53;7.63;;;;;;;;;;5076419;28;20455;-73
2021/12/13 13:44:16;;;;;;;11.77;7.50;;;;;;;;;;5076295;28;20462;-73
2021/12/13 13:46:44;;;;;;;10.17;7.60;;;;;;;;;;5076343;28;20463;-73
2021/12/13 13:49:11;;;;;;;11.70;7.63;;;;;;;;;;5075987;28;20526;-73
2021/12/13 13:51:38;;;;;;;12.67;8.43;;;;;;;;;;5076247;28;20451;-73
2021/12/13 13:54:07;;;;;;;17.30;10.70;;;;;;;;;;5076155;28;21013;-73
2021/12/13 13:56:36;;;;;;;14.30;8.00;;;;;;;;;;5076113;28;20436;-73
2021/12/13 13:59:05;;;;;;;12.53;7.90;;;;;;;;;;5076409;28;20470;-72
2021/12/13 14:01:34;;;;;;;13.03;9.00;;;;;;;;;;5075931;28;20447;-73
2021/12/13 14:04:04;;;;;;;9.57;6.90;;;;;;;;;;5075949;28;20550;-73
2021/12/13 14:06:34;;;;;;;11.07;8.40;;;;;;;;;;5076442;28;20455;-73
2021/12/13 14:09:04;;;;;;;16.00;9.03;;;;;;;;;;5076035;28;20455;-73
2021/12/13 14:11:32;;;;;;;14.60;7.83;;;;;;;;;;5075734;28;20451;-73
2021/12/13 14:14:01;;;;;;;10.40;6.93;;;;;;;;;;5075525;28;20460;-73
2021/12/13 14:16:28;;;;;;;10.60;7.90;;;;;;;;;;5075794;28;20463;-73
2021/12/13 14:18:56;;;;;;;8.33;6.93;;;;;;;;;;5075801;28;20451;-73
2021/12/13 14:21:26;;;;;;;14.10;8.77;;;;;;;;;;5075727;28;20447;-73
2021/12/13 14:23:54;;;;;;;10.37;6.87;;;;;;;;;;5075643;28;20870;-73
2021/12/13 14:26:23;;;;;;;12.40;8.50;;;;;;;;;;5075517;28;20459;-73
2021/12/13 14:28:55;;;;;;;11.07;7.73;;;;;;;;;;5075864;28;20547;-73
2021/12/13 14:31:24;;;;;;;20.00;10.77;;;;;;;;;;5075580;28;20451;-73
2021/12/13 14:33:52;;;;;;;18.73;9.27;;;;;;;;;;5075436;28;20933;-73
2021/12/13 14:36:21;;;;;;;15.23;10.40;;;;;;;;;;5075019;28;20825;-73
2021/12/13 14:38:51;;;;;;;14.87;10.20;;;;;;;;;;5075434;28;20983;-73
2021/12/13 14:41:20;;;;;;;15.37;8.87;;;;;;;;;;5075178;28;20456;-73
2021/12/13 14:43:49;;;;;;;12.37;9.43;;;;;;;;;;5075340;28;20455;-73
2021/12/13 14:46:21;;;;;;;13.30;8.57;;;;;;;;;;5075135;28;20790;-73
2021/12/13 14:48:49;;;;;;;13.03;9.07;;;;;;;;;;5075199;28;20960;-73
2021/12/13 14:51:17;;;;;;;10.03;8.37;;;;;;;;;;5075574;28;20451;-73
2021/12/13 14:53:45;;;;;;;9.60;7.10;;;;;;;;;;5075094;28;20452;-73
2021/12/13 14:56:15;;;;;;;13.70;8.73;;;;;;;;;;5075640;28;20483;-73
2021/12/13 14:58:44;;;;;;;13.17;9.40;;;;;;;;;;5075180;28;20443;-73